Time;durP1;ratioP1;P1;durP2;ratioP2;P2;SDS_P1;SDS_P2;PMS_P1;PMS_P2;Temp;Humidity;BMP_temperature;BMP_pressure;BME280_temperature;BME280_humidity;BME280_pressure;Samples;Min_cycle;Max_cycle;Signal;HPM_P1;HPM_P2
2023/10/21 00:02:03;;;;;;;0.40;0.20;;;14.00;99.90;;;;;;5031579;28;20186;-82
2023/10/21 00:04:29;;;;;;;0.40;0.20;;;14.10;99.90;;;;;;5027808;28;20202;-84
2023/10/21 00:06:55;;;;;;;0.40;0.30;;;14.10;99.90;;;;;;5026900;28;20995;-81
2023/10/21 00:09:21;;;;;;;0.40;0.20;;;;;;;;;;5045523;28;20499;-79
2023/10/21 00:11:47;;;;;;;0.40;0.20;;;14.00;99.90;;;;;;5031692;28;20188;-82
2023/10/21 00:14:12;;;;;;;0.40;0.20;;;14.00;99.90;;;;;;5028316;28;20883;-84
2023/10/21 00:16:38;;;;;;;0.40;0.20;;;14.00;99.90;;;;;;5036363;28;20209;-80
2023/10/21 00:19:04;;;;;;;0.40;0.20;;;14.00;99.90;;;;;;5026272;28;20218;-83
2023/10/21 00:21:30;;;;;;;0.40;0.30;;;13.90;99.90;;;;;;5027642;28;20189;-82
2023/10/21 00:23:56;;;;;;;0.40;0.20;;;14.00;99.90;;;;;;5028956;28;20448;-84
2023/10/21 00:26:22;;;;;;;0.40;0.20;;;14.00;99.90;;;;;;5031543;28;20182;-80
2023/10/21 00:28:47;;;;;;;0.40;0.20;;;14.00;99.90;;;;;;5031728;28;20460;-83
2023/10/21 00:31:13;;;;;;;0.40;0.20;;;14.10;99.90;;;;;;5028596;28;20436;-80
2023/10/21 00:33:38;;;;;;;0.40;0.20;;;14.10;99.90;;;;;;5026745;28;20201;-82
2023/10/21 00:36:04;;;;;;;0.40;0.20;;;14.20;99.90;;;;;;5022060;28;20205;-83
2023/10/21 00:38:30;;;;;;;0.40;0.20;;;14.30;99.90;;;;;;5024471;28;20223;-84
2023/10/21 00:40:57;;;;;;;0.40;0.20;;;14.20;99.90;;;;;;5031898;28;20192;-79
2023/10/21 00:43:42;;;;;;;0.40;0.20;;;14.30;99.90;;;;;;5033475;28;20186;-82
2023/10/21 00:46:22;;;;;;;0.40;0.30;;;14.30;99.90;;;;;;5028039;28;20458;-80
2023/10/21 00:48:48;;;;;;;0.40;0.20;;;14.30;99.90;;;;;;5026579;28;20585;-79
2023/10/21 00:51:15;;;;;;;0.40;0.20;;;14.40;99.90;;;;;;5038147;28;20495;-82
2023/10/21 00:53:41;;;;;;;0.40;0.20;;;14.50;99.90;;;;;;5027600;28;20444;-80
2023/10/21 00:56:06;;;;;;;0.40;0.20;;;14.40;99.90;;;;;;5030126;28;20494;-84
2023/10/21 00:58:32;;;;;;;0.40;0.20;;;;;;;;;;5029127;28;20459;-83
2023/10/21 01:01:01;;;;;;;0.40;0.20;;;14.50;99.90;;;;;;5040338;28;20640;-84
2023/10/21 01:03:28;;;;;;;0.40;0.20;;;;;;;;;;5031455;28;20478;-81
2023/10/21 01:05:53;;;;;;;0.40;0.20;;;14.40;99.90;;;;;;5041440;28;20447;-79
2023/10/21 01:08:19;;;;;;;0.40;0.20;;;14.30;99.90;;;;;;5045454;28;20464;-83
2023/10/21 01:10:45;;;;;;;0.40;0.20;;;14.40;99.90;;;;;;5034694;28;20194;-81
2023/10/21 01:13:10;;;;;;;0.40;0.20;;;14.00;99.90;;;;;;5032802;28;20279;-82
2023/10/21 01:15:36;;;;;;;0.40;0.30;;;14.50;99.90;;;;;;5032781;28;20678;-82
2023/10/21 01:18:03;;;;;;;0.40;0.20;;;14.50;99.90;;;;;;5028387;28;20831;-84
2023/10/21 01:20:29;;;;;;;0.40;0.30;;;14.50;99.90;;;;;;5025737;28;20189;-81
2023/10/21 01:22:57;;;;;;;0.40;0.20;;;14.50;99.90;;;;;;5047945;28;20432;-78
2023/10/21 01:25:24;;;;;;;0.40;0.30;;;14.50;99.90;;;;;;5038744;28;20645;-80
2023/10/21 01:27:56;;;;;;;0.40;0.20;;;14.50;99.90;;;;;;5032915;28;20969;-82
2023/10/21 01:30:22;;;;;;;0.40;0.20;;;14.50;99.90;;;;;;5033651;28;20453;-82
2023/10/21 01:32:48;;;;;;;0.40;0.30;;;14.50;99.90;;;;;;5032085;28;20912;-79
2023/10/21 01:35:17;;;;;;;0.40;0.20;;;14.60;99.90;;;;;;5041275;28;20464;-81
2023/10/21 01:37:44;;;;;;;0.40;0.20;;;14.50;99.90;;;;;;5033263;28;20451;-81
2023/10/21 01:40:10;;;;;;;0.40;0.20;;;14.60;99.90;;;;;;5030276;28;20528;-83
2023/10/21 01:42:37;;;;;;;0.40;0.20;;;14.70;99.90;;;;;;5032985;28;20528;-84
2023/10/21 01:45:04;;;;;;;0.40;0.30;;;14.60;99.90;;;;;;5030661;28;20446;-84
2023/10/21 01:47:30;;;;;;;0.40;0.23;;;14.70;99.90;;;;;;5030623;28;20449;-82
2023/10/21 01:49:57;;;;;;;0.40;0.20;;;;;;;;;;5031127;28;20518;-82
2023/10/21 01:52:23;;;;;;;0.40;0.20;;;14.70;99.90;;;;;;5024779;28;20440;-82
2023/10/21 01:54:49;;;;;;;0.40;0.30;;;14.80;99.90;;;;;;5038390;28;20478;-80
2023/10/21 01:57:15;;;;;;;0.40;0.20;;;14.80;99.90;;;;;;5026427;28;20448;-82
2023/10/21 01:59:41;;;;;;;0.40;0.20;;;;;;;;;;5043570;28;20205;-83
2023/10/21 02:02:06;;;;;;;0.40;0.20;;;14.60;99.90;;;;;;5025559;28;21518;-82
2023/10/21 02:04:33;;;;;;;0.40;0.20;;;;;;;;;;5027055;28;20466;-83
2023/10/21 02:06:58;;;;;;;0.40;0.20;;;14.70;99.90;;;;;;5025558;28;20630;-81
2023/10/21 02:09:24;;;;;;;0.40;0.20;;;;;;;;;;5024545;28;20470;-83
2023/10/21 02:11:52;;;;;;;0.40;0.30;;;14.50;99.90;;;;;;5023871;28;20547;-81
2023/10/21 02:14:18;;;;;;;0.40;0.20;;;14.40;99.90;;;;;;5029686;28;20494;-83
2023/10/21 02:16:43;;;;;;;0.40;0.30;;;14.50;99.90;;;;;;5032062;28;21008;-83
2023/10/21 02:19:09;;;;;;;0.40;0.30;;;;;;;;;;5027253;28;20220;-82
2023/10/21 02:21:35;;;;;;;0.40;0.20;;;;;;;;;;5036550;28;20607;-81
2023/10/21 02:24:01;;;;;;;0.40;0.30;;;;;;;;;;5020824;28;20471;-83
2023/10/21 02:26:26;;;;;;;0.40;0.30;;;14.70;99.90;;;;;;5022630;28;20452;-84
2023/10/21 02:28:53;;;;;;;0.40;0.20;;;14.70;99.90;;;;;;5021657;28;20542;-79
2023/10/21 02:31:18;;;;;;;0.40;0.20;;;14.60;99.90;;;;;;5038865;28;20225;-82
2023/10/21 02:33:44;;;;;;;0.40;0.20;;;;;;;;;;5037561;28;20450;-83
2023/10/21 02:36:10;;;;;;;0.40;0.20;;;14.70;99.90;;;;;;5022994;28;20227;-84
2023/10/21 02:38:35;;;;;;;0.40;0.30;;;14.70;99.90;;;;;;5027378;28;20459;-84
2023/10/21 02:41:03;;;;;;;0.40;0.20;;;14.80;99.90;;;;;;5026935;28;20220;-83
2023/10/21 02:43:29;;;;;;;0.40;0.20;;;14.80;99.90;;;;;;5026537;28;20193;-79
2023/10/21 02:45:54;;;;;;;0.40;0.20;;;14.90;99.90;;;;;;5033483;28;20482;-81
2023/10/21 02:48:20;;;;;;;0.40;0.20;;;16.50;99.90;;;;;;5046947;28;20689;-84
2023/10/21 02:50:45;;;;;;;0.40;0.20;;;15.00;99.90;;;;;;5023300;28;20201;-82
2023/10/21 02:53:11;;;;;;;0.40;0.23;;;15.00;99.90;;;;;;5026764;28;20185;-81
2023/10/21 02:55:36;;;;;;;0.40;0.20;;;15.00;99.90;;;;;;5026762;28;20208;-78
2023/10/21 02:58:02;;;;;;;0.40;0.20;;;14.80;99.90;;;;;;5027145;28;20181;-85
2023/10/21 03:00:28;;;;;;;0.40;0.20;;;;;;;;;;5019044;28;20178;-82
2023/10/21 03:02:54;;;;;;;0.40;0.20;;;14.80;99.90;;;;;;5030093;28;20181;-81
2023/10/21 03:05:20;;;;;;;0.40;0.20;;;;;;;;;;5020405;28;20448;-80
2023/10/21 03:07:46;;;;;;;0.40;0.30;;;;;;;;;;5027004;28;20197;-82
2023/10/21 03:10:12;;;;;;;0.40;0.20;;;;;;;;;;5025626;28;20519;-80
2023/10/21 03:12:37;;;;;;;0.40;0.20;;;14.20;99.90;;;;;;5025098;28;21065;-82
2023/10/21 03:15:06;;;;;;;0.40;0.30;;;14.10;99.90;;;;;;5024413;28;20503;-82
2023/10/21 03:17:32;;;;;;;0.40;0.20;;;14.00;99.90;;;;;;5036237;28;20193;-83
2023/10/21 03:19:57;;;;;;;0.40;0.20;;;13.90;99.90;;;;;;5022924;28;20464;-81
2023/10/21 03:22:23;;;;;;;0.40;0.20;;;13.80;99.90;;;;;;5028252;28;20193;-83
2023/10/21 03:24:48;;;;;;;0.40;0.30;;;13.80;99.90;;;;;;5031628;28;20300;-81
2023/10/21 03:27:14;;;;;;;0.40;0.20;;;13.70;99.90;;;;;;5028821;28;20784;-80
2023/10/21 03:29:40;;;;;;;0.40;0.20;;;13.60;99.90;;;;;;5038097;28;20241;-85
2023/10/21 03:32:06;;;;;;;0.40;0.30;;;13.50;99.90;;;;;;5045468;28;20206;-80
2023/10/21 03:34:33;;;;;;;0.40;0.20;;;13.50;99.90;;;;;;5030290;28;20504;-83
2023/10/21 03:37:00;;;;;;;0.40;0.20;;;13.50;99.90;;;;;;5041590;28;20555;-80
2023/10/21 03:39:26;;;;;;;0.40;0.20;;;13.60;99.90;;;;;;5031889;28;20475;-82
2023/10/21 03:41:52;;;;;;;0.40;0.20;;;13.70;99.90;;;;;;5028678;28;20443;-83
2023/10/21 03:44:17;;;;;;;0.40;0.20;;;13.90;99.90;;;;;;5026906;28;20532;-80
2023/10/21 03:46:44;;;;;;;0.40;0.30;;;;;;;;;;5026645;28;20451;-84
2023/10/21 03:49:09;;;;;;;0.40;0.20;;;14.60;99.90;;;;;;5022999;28;20210;-81
2023/10/21 03:51:36;;;;;;;0.40;0.30;;;;;;;;;;5027510;28;20443;-82
2023/10/21 03:54:01;;;;;;;0.40;0.20;;;;;;;;;;5034394;28;20249;-82
2023/10/21 03:56:27;;;;;;;0.40;0.20;;;14.50;99.90;;;;;;5030765;28;20558;-81
2023/10/21 03:58:53;;;;;;;0.40;0.20;;;14.50;99.90;;;;;;5028139;28;20463;-81
2023/10/21 04:01:20;;;;;;;0.40;0.20;;;14.30;99.90;;;;;;5029626;28;20194;-84
2023/10/21 04:03:46;;;;;;;0.40;0.20;;;14.20;99.90;;;;;;5027936;28;20184;-81
2023/10/21 04:06:15;;;;;;;0.40;0.20;;;;;;;;;;5023833;28;20435;-83
2023/10/21 04:08:41;;;;;;;0.40;0.20;;;;;;;;;;5038271;28;21046;-83
2023/10/21 04:11:08;;;;;;;0.40;0.20;;;14.20;99.90;;;;;;5027478;28;20432;-80
2023/10/21 04:13:34;;;;;;;0.40;0.20;;;14.20;99.90;;;;;;5020368;28;20497;-82
2023/10/21 04:16:00;;;;;;;0.40;0.20;;;;;;;;;;5022339;28;20463;-80
2023/10/21 04:18:25;;;;;;;0.40;0.20;;;14.20;99.90;;;;;;5027596;28;20456;-81
2023/10/21 04:20:51;;;;;;;0.40;0.20;;;;;;;;;;5025678;28;20444;-83
2023/10/21 04:23:17;;;;;;;0.40;0.30;;;14.20;99.90;;;;;;5019070;28;20200;-80
2023/10/21 04:25:43;;;;;;;0.40;0.20;;;;;;;;;;5038102;28;20444;-80
2023/10/21 04:28:10;;;;;;;0.40;0.20;;;14.30;99.90;;;;;;5027213;28;21695;-80
2023/10/21 04:30:36;;;;;;;0.40;0.30;;;14.20;99.90;;;;;;5020824;28;20494;-82
2023/10/21 04:33:02;;;;;;;0.40;0.20;;;14.20;99.90;;;;;;5037278;28;20546;-82
2023/10/21 04:35:28;;;;;;;0.40;0.20;;;14.30;99.90;;;;;;5024152;28;20486;-82
2023/10/21 04:37:54;;;;;;;0.40;0.23;;;14.30;99.90;;;;;;5019151;28;20918;-81
2023/10/21 04:40:20;;;;;;;0.40;0.23;;;14.50;99.90;;;;;;5015523;28;20190;-82
2023/10/21 04:42:46;;;;;;;0.40;0.20;;;14.30;99.90;;;;;;5025533;28;20463;-78
2023/10/21 04:45:11;;;;;;;0.40;0.20;;;;;;;;;;5039485;28;20455;-85
2023/10/21 04:47:37;;;;;;;0.40;0.20;;;14.20;99.90;;;;;;5027946;28;20186;-79
2023/10/21 04:50:04;;;;;;;0.40;0.20;;;14.20;99.90;;;;;;5045109;28;20482;-79
2023/10/21 04:52:29;;;;;;;0.40;0.20;;;14.20;99.90;;;;;;5023466;28;20444;-83
2023/10/21 04:54:55;;;;;;;0.40;0.30;;;15.00;99.90;;;;;;5019794;28;20482;-81
2023/10/21 04:57:21;;;;;;;0.40;0.20;;;;;;;;;;5039449;28;20193;-78
2023/10/21 04:59:46;;;;;;;0.40;0.20;;;14.10;99.90;;;;;;5023246;28;20216;-80
2023/10/21 05:02:12;;;;;;;0.40;0.20;;;14.10;99.90;;;;;;5029117;28;20442;-83
2023/10/21 05:04:38;;;;;;;0.40;0.20;;;14.00;99.90;;;;;;5026752;28;20202;-81
2023/10/21 05:07:04;;;;;;;0.40;0.20;;;14.10;99.90;;;;;;5032176;28;20193;-82
2023/10/21 05:09:30;;;;;;;0.40;0.20;;;14.00;99.90;;;;;;5020085;28;20472;-80
2023/10/21 05:11:56;;;;;;;0.40;0.20;;;14.00;99.90;;;;;;5020699;28;20285;-82
2023/10/21 05:14:21;;;;;;;0.40;0.20;;;13.90;99.90;;;;;;5023072;28;20443;-78
2023/10/21 05:16:47;;;;;;;0.40;0.20;;;13.80;99.90;;;;;;5026279;28;20252;-85
2023/10/21 05:19:12;;;;;;;0.40;0.30;;;13.70;99.90;;;;;;5028008;28;20563;-80
2023/10/21 05:21:38;;;;;;;0.40;0.30;;;13.60;99.90;;;;;;5017921;28;20950;-79
2023/10/21 05:24:04;;;;;;;0.40;0.30;;;13.60;99.90;;;;;;5027051;28;20179;-79
2023/10/21 05:26:29;;;;;;;0.40;0.20;;;13.60;99.90;;;;;;5020742;28;20202;-80
2023/10/21 05:28:57;;;;;;;0.40;0.20;;;13.50;99.90;;;;;;5021673;28;21252;-80
2023/10/21 05:31:23;;;;;;;0.40;0.30;;;13.50;99.90;;;;;;5017731;28;20227;-83
2023/10/21 05:33:48;;;;;;;0.40;0.20;;;13.40;99.90;;;;;;5021104;28;21501;-82
2023/10/21 05:36:14;;;;;;;0.40;0.20;;;13.40;99.90;;;;;;5017742;28;22795;-82
2023/10/21 05:38:39;;;;;;;0.40;0.20;;;13.40;99.90;;;;;;5024788;28;20350;-81
2023/10/21 05:41:05;;;;;;;0.40;0.27;;;13.40;99.90;;;;;;5025893;28;20347;-81
2023/10/21 05:43:31;;;;;;;0.40;0.20;;;;;;;;;;5025153;28;20186;-80
2023/10/21 05:45:58;;;;;;;0.40;0.20;;;13.30;99.90;;;;;;5039391;28;20720;-84
2023/10/21 05:48:23;;;;;;;0.40;0.20;;;13.20;99.90;;;;;;5025216;28;20570;-80
2023/10/21 05:50:49;;;;;;;0.40;0.20;;;13.10;99.90;;;;;;5034961;28;20700;-82
2023/10/21 05:53:15;;;;;;;0.40;0.20;;;13.20;99.90;;;;;;5036821;28;20190;-81
2023/10/21 05:55:41;;;;;;;0.50;0.40;;;13.10;99.90;;;;;;5029803;28;20213;-84
2023/10/21 05:58:07;;;;;;;0.40;0.20;;;;;;;;;;5031645;28;20192;-83
2023/10/21 06:00:33;;;;;;;0.40;0.20;;;13.10;99.90;;;;;;5029514;28;21575;-84
2023/10/21 06:02:58;;;;;;;0.40;0.20;;;13.10;99.90;;;;;;5027293;28;20448;-85
2023/10/21 06:05:24;;;;;;;0.40;0.30;;;13.10;99.90;;;;;;5024909;28;20567;-83
2023/10/21 06:07:49;;;;;;;0.40;0.20;;;13.00;99.90;;;;;;5029491;28;20211;-82
2023/10/21 06:10:16;;;;;;;0.40;0.20;;;13.10;99.90;;;;;;5032750;28;20201;-82
2023/10/21 06:12:43;;;;;;;0.40;0.20;;;13.00;99.90;;;;;;5036659;28;21084;-83
2023/10/21 06:15:09;;;;;;;0.40;0.20;;;13.00;99.90;;;;;;5025274;28;20464;-84
2023/10/21 06:17:34;;;;;;;0.40;0.30;;;12.90;99.90;;;;;;5028016;28;20436;-82
2023/10/21 06:20:00;;;;;;;0.40;0.30;;;;;;;;;;5026822;28;20573;-81
2023/10/21 06:22:26;;;;;;;0.40;0.20;;;13.00;99.90;;;;;;5028218;28;20747;-83
2023/10/21 06:24:52;;;;;;;1.13;1.03;;;;;;;;;;5029632;28;20544;-84
2023/10/21 06:27:18;;;;;;;0.40;0.20;;;;;;;;;;5029546;28;20212;-82
2023/10/21 06:29:43;;;;;;;0.40;0.20;;;12.90;99.90;;;;;;5029587;28;20467;-81
2023/10/21 06:32:10;;;;;;;0.40;0.30;;;12.90;99.90;;;;;;5041846;28;20445;-83
2023/10/21 06:34:35;;;;;;;0.40;0.20;;;12.70;99.90;;;;;;5030421;28;21335;-80
2023/10/21 06:37:01;;;;;;;0.40;0.23;;;12.70;99.90;;;;;;5025929;28;20515;-82
2023/10/21 06:39:27;;;;;;;0.40;0.20;;;12.70;99.90;;;;;;5026312;28;20470;-82
2023/10/21 06:41:53;;;;;;;0.57;0.40;;;13.70;99.90;;;;;;5028960;28;20348;-82
2023/10/21 06:44:19;;;;;;;0.40;0.23;;;13.70;99.90;;;;;;5024817;28;21026;-81
2023/10/21 06:46:44;;;;;;;0.40;0.20;;;15.20;99.90;;;;;;5028102;28;20447;-83
2023/10/21 06:49:10;;;;;;;0.40;0.20;;;15.60;99.90;;;;;;5024587;28;20205;-83
2023/10/21 06:51:36;;;;;;;0.40;0.30;;;15.50;99.90;;;;;;5025615;28;20429;-80
2023/10/21 06:54:07;;;;;;;0.40;0.20;;;15.50;99.90;;;;;;5023834;28;20193;-82
2023/10/21 06:56:35;;;;;;;0.40;0.30;;;;;;;;;;5033348;28;20809;-82
2023/10/21 06:59:01;;;;;;;0.40;0.20;;;;;;;;;;5043980;28;20549;-82
2023/10/21 07:01:27;;;;;;;0.83;0.83;;;15.60;99.90;;;;;;5029527;28;20451;-82
2023/10/21 07:03:53;;;;;;;0.40;0.20;;;15.50;99.90;;;;;;5025128;28;20439;-83
2023/10/21 07:06:20;;;;;;;0.40;0.20;;;;;;;;;;5046752;28;20431;-82
2023/10/21 07:08:46;;;;;;;0.40;0.30;;;17.10;99.90;;;;;;5033195;28;20458;-82
2023/10/21 07:11:12;;;;;;;0.40;0.30;;;18.30;99.90;;;;;;5031395;28;20471;-84
2023/10/21 07:13:38;;;;;;;0.40;0.27;;;18.60;99.90;;;;;;5031335;28;20478;-83
2023/10/21 07:16:08;;;;;;;0.40;0.20;;;19.80;99.90;;;;;;5033600;28;20924;-84
2023/10/21 07:18:33;;;;;;;0.40;0.30;;;;;;;;;;5030232;28;20296;-84
2023/10/21 07:20:59;;;;;;;0.40;0.20;;;20.50;99.90;;;;;;5031348;28;20930;-85
2023/10/21 07:23:24;;;;;;;0.50;0.40;;;20.50;99.90;;;;;;5022548;28;20480;-83
2023/10/21 07:25:51;;;;;;;0.40;0.20;;;20.20;99.90;;;;;;5025588;28;20200;-83
2023/10/21 07:28:17;;;;;;;0.40;0.23;;;;;;;;;;5031004;28;20244;-82
2023/10/21 07:30:44;;;;;;;0.40;0.30;;;;;;;;;;5032353;28;20495;-83
2023/10/21 07:33:10;;;;;;;0.40;0.30;;;;;;;;;;5026476;28;20447;-84
2023/10/21 07:35:36;;;;;;;0.40;0.30;;;;;;;;;;5018374;28;20467;-82
2023/10/21 07:38:03;;;;;;;0.40;0.20;;;;;;;;;;5033441;28;20452;-83
2023/10/21 07:40:32;;;;;;;0.40;0.30;;;;;;;;;;5024232;28;20519;-82
2023/10/21 07:42:58;;;;;;;0.40;0.30;;;;;;;;;;5022140;28;20436;-82
2023/10/21 07:45:24;;;;;;;0.40;0.30;;;;;;;;;;5029194;28;20447;-83
2023/10/21 07:47:50;;;;;;;0.40;0.20;;;22.00;99.90;;;;;;5030007;28;20440;-84
2023/10/21 07:50:17;;;;;;;0.40;0.20;;;;;;;;;;5024472;28;20470;-82
2023/10/21 07:52:43;;;;;;;0.40;0.20;;;22.60;99.90;;;;;;5012989;28;20194;-85
2023/10/21 07:55:12;;;;;;;0.40;0.20;;;;;;;;;;5023725;28;20498;-82
2023/10/21 07:57:39;;;;;;;0.40;0.30;;;;;;;;;;5027126;28;20545;-82
2023/10/21 08:00:05;;;;;;;0.40;0.30;;;23.30;99.90;;;;;;5042974;28;20539;-83
2023/10/21 08:02:32;;;;;;;0.40;0.30;;;;;;;;;;5030819;28;20518;-82
2023/10/21 08:04:58;;;;;;;0.40;0.30;;;;;;;;;;5043510;28;20464;-82
2023/10/21 08:07:24;;;;;;;0.40;0.20;;;;;;;;;;5035902;28;20425;-83
2023/10/21 08:09:50;;;;;;;0.40;0.30;;;;;;;;;;5029562;28;20472;-82
2023/10/21 08:12:16;;;;;;;1.33;0.67;;;;;;;;;;5026854;28;20456;-81
2023/10/21 08:14:42;;;;;;;0.40;0.30;;;;;;;;;;5030324;28;20476;-81
2023/10/21 08:17:08;;;;;;;0.40;0.30;;;19.50;99.90;;;;;;5031078;28;20865;-83
2023/10/21 08:19:34;;;;;;;0.40;0.20;;;19.60;99.90;;;;;;5026115;28;20467;-83
2023/10/21 08:22:00;;;;;;;0.40;0.30;;;20.30;99.90;;;;;;5013361;28;20240;-83
2023/10/21 08:24:26;;;;;;;0.40;0.30;;;19.50;99.90;;;;;;5018507;28;20916;-82
2023/10/21 08:26:52;;;;;;;0.40;0.30;;;18.90;99.90;;;;;;5020515;28;20476;-85
2023/10/21 08:29:17;;;;;;;0.40;0.20;;;19.40;99.90;;;;;;5042375;28;20374;-81
2023/10/21 08:31:43;;;;;;;0.40;0.30;;;18.90;99.90;;;;;;5034698;28;20268;-84
2023/10/21 08:34:13;;;;;;;0.40;0.30;;;17.90;99.90;;;;;;5029235;28;20331;-84
2023/10/21 08:36:39;;;;;;;0.40;0.30;;;18.70;99.90;;;;;;5021507;28;20213;-82
2023/10/21 08:39:07;;;;;;;0.40;0.30;;;18.60;99.90;;;;;;5023435;28;22095;-83
2023/10/21 08:41:37;;;;;;;0.40;0.30;;;18.80;99.90;;;;;;5023863;28;20468;-81
2023/10/21 08:44:05;;;;;;;0.40;0.30;;;;;;;;;;5016644;28;20444;-83
2023/10/21 08:46:35;;;;;;;0.40;0.20;;;18.60;99.90;;;;;;5024768;28;20953;-85
2023/10/21 08:49:04;;;;;;;0.40;0.30;;;17.60;99.90;;;;;;5035160;28;20847;-82
2023/10/21 08:51:32;;;;;;;0.40;0.20;;;17.20;99.90;;;;;;5036855;28;20440;-84
2023/10/21 08:54:05;;;;;;;0.40;0.30;;;17.80;99.90;;;;;;5037543;28;20449;-84
2023/10/21 08:56:33;;;;;;;0.40;0.20;;;18.20;99.90;;;;;;5019341;28;20482;-82
2023/10/21 08:59:00;;;;;;;0.40;0.20;;;18.10;99.90;;;;;;5042695;28;20511;-84
2023/10/21 09:01:26;;;;;;;0.40;0.30;;;18.20;99.90;;;;;;5022777;28;20440;-83
2023/10/21 09:03:52;;;;;;;0.40;0.20;;;18.20;99.90;;;;;;5022563;28;20431;-85
2023/10/21 09:06:18;;;;;;;0.40;0.30;;;;;;;;;;5019806;28;20199;-83
2023/10/21 09:08:47;;;;;;;0.40;0.20;;;19.70;99.90;;;;;;5036341;28;20216;-85
2023/10/21 09:11:16;;;;;;;0.40;0.30;;;19.20;99.90;;;;;;5048767;28;20598;-81
2023/10/21 09:13:42;;;;;;;0.40;0.20;;;;;;;;;;5011249;28;20443;-82
2023/10/21 09:16:25;;;;;;;0.40;0.30;;;18.30;99.90;;;;;;5026832;28;20460;-83
2023/10/21 09:18:57;;;;;;;0.40;0.30;;;18.00;99.90;;;;;;5037329;28;20464;-84
2023/10/21 09:21:45;;;;;;;0.40;0.30;;;17.20;99.90;;;;;;5027722;28;20459;-80
2023/10/21 09:24:22;;;;;;;0.40;0.30;;;16.40;99.90;;;;;;5031386;28;20436;-82
2023/10/21 09:26:48;;;;;;;0.40;0.30;;;16.10;99.90;;;;;;5029021;28;20431;-82
2023/10/21 09:29:19;;;;;;;0.40;0.20;;;15.50;99.90;;;;;;5029790;28;20460;-83
2023/10/21 09:31:55;;;;;;;0.40;0.20;;;15.50;99.90;;;;;;5022654;28;20444;-81
2023/10/21 09:34:32;;;;;;;0.40;0.30;;;15.40;99.90;;;;;;5042651;28;20439;-82
2023/10/21 09:37:03;;;;;;;0.40;0.20;;;15.50;99.90;;;;;;5023320;28;20500;-83
2023/10/21 09:39:43;;;;;;;0.40;0.30;;;15.70;99.90;;;;;;5041863;28;20464;-85
2023/10/21 09:42:08;;;;;;;0.40;0.20;;;15.90;99.90;;;;;;5030900;28;20482;-79
2023/10/21 09:44:38;;;;;;;0.40;0.27;;;16.20;99.90;;;;;;5049996;28;20456;-84
2023/10/21 09:47:08;;;;;;;0.40;0.20;;;16.40;99.90;;;;;;5022299;28;20486;-80
2023/10/21 09:49:40;;;;;;;0.40;0.30;;;16.40;99.90;;;;;;5019220;28;20540;-85
2023/10/21 09:52:15;;;;;;;0.40;0.20;;;16.40;99.90;;;;;;5022530;28;20804;-83
2023/10/21 09:54:55;;;;;;;0.40;0.20;;;16.60;99.90;;;;;;5021475;28;20463;-79
2023/10/21 09:57:22;;;;;;;0.40;0.20;;;16.50;99.90;;;;;;5014175;28;20444;-85
2023/10/21 09:59:48;;;;;;;0.40;0.30;;;;;;;;;;5031558;28;20510;-82
2023/10/21 10:02:14;;;;;;;0.40;0.30;;;16.30;99.90;;;;;;5017477;28;20444;-84
2023/10/21 10:04:40;;;;;;;0.40;0.20;;;;;;;;;;5023378;28;20444;-83
2023/10/21 10:07:06;;;;;;;0.40;0.20;;;16.50;99.90;;;;;;5019599;28;20441;-84
2023/10/21 10:09:40;;;;;;;0.40;0.20;;;16.40;99.90;;;;;;5020891;28;20603;-84
2023/10/21 10:12:09;;;;;;;0.40;0.23;;;16.50;99.90;;;;;;5021701;28;20448;-82
2023/10/21 10:14:35;;;;;;;0.40;0.30;;;;;;;;;;5018808;28;20444;-85
2023/10/21 10:17:00;;;;;;;0.40;0.30;;;16.40;99.90;;;;;;5023313;28;20451;-80
2023/10/21 10:19:39;;;;;;;0.40;0.20;;;16.80;99.90;;;;;;5027578;28;20482;-82
2023/10/21 10:22:19;;;;;;;3.80;1.23;;;16.90;99.90;;;;;;5022163;28;20229;-83
2023/10/21 10:24:55;;;;;;;0.40;0.20;;;16.90;99.90;;;;;;5006010;28;20535;-82
2023/10/21 10:27:24;;;;;;;0.40;0.20;;;17.20;99.90;;;;;;5017439;28;20476;-83
2023/10/21 10:29:51;;;;;;;0.40;0.30;;;17.20;99.90;;;;;;5021818;28;20914;-81
2023/10/21 10:32:20;;;;;;;0.40;0.20;;;17.20;99.90;;;;;;5032668;28;21106;-83
2023/10/21 10:34:52;;;;;;;0.40;0.20;;;17.40;99.90;;;;;;5029381;28;20573;-83
2023/10/21 10:37:37;;;;;;;0.40;0.20;;;17.40;99.90;;;;;;5017453;28;21691;-81
2023/10/21 10:40:19;;;;;;;0.40;0.30;;;17.20;99.90;;;;;;5018667;28;20500;-83
2023/10/21 10:42:45;;;;;;;0.40;0.20;;;17.40;99.90;;;;;;5032193;28;21095;-83
2023/10/21 10:45:11;;;;;;;0.40;0.30;;;17.40;99.90;;;;;;5036822;28;20485;-81
2023/10/21 10:47:40;;;;;;;0.40;0.20;;;17.30;99.90;;;;;;5024060;28;20451;-81
2023/10/21 10:50:12;;;;;;;0.40;0.20;;;17.20;99.90;;;;;;5019778;28;20209;-82
2023/10/21 10:52:38;;;;;;;0.40;0.20;;;17.20;99.90;;;;;;5005678;28;20440;-82
2023/10/21 10:55:08;;;;;;;0.40;0.20;;;17.30;99.90;;;;;;5025036;28;20470;-84
2023/10/21 10:57:34;;;;;;;0.40;0.20;;;17.50;99.90;;;;;;5031957;28;20456;-84
2023/10/21 11:00:00;;;;;;;0.40;0.30;;;17.90;99.90;;;;;;5025347;28;20817;-80
2023/10/21 11:02:28;;;;;;;0.40;0.20;;;18.00;99.90;;;;;;5020693;28;20440;-83
2023/10/21 11:04:59;;;;;;;0.40;0.30;;;18.20;99.90;;;;;;5022835;28;20205;-83
2023/10/21 11:07:30;;;;;;;0.40;0.20;;;18.30;99.90;;;;;;5017595;28;20451;-83
2023/10/21 11:10:02;;;;;;;0.40;0.30;;;18.30;99.90;;;;;;5017086;28;20479;-82
2023/10/21 11:12:28;;;;;;;0.40;0.27;;;18.60;99.90;;;;;;5021387;28;20457;-83
2023/10/21 11:14:57;;;;;;;0.67;0.67;;;;;;;;;;5024258;28;20459;-82
2023/10/21 11:17:23;;;;;;;0.40;0.20;;;;;;;;;;5021483;28;20432;-81
2023/10/21 11:19:49;;;;;;;0.40;0.30;;;;;;;;;;5026200;28;20470;-84
2023/10/21 11:22:28;;;;;;;0.40;0.20;;;18.50;99.90;;;;;;5033406;28;20984;-84
2023/10/21 11:24:54;;;;;;;0.40;0.20;;;;;;;;;;5051908;28;20477;-85
2023/10/21 11:27:20;;;;;;;0.40;0.30;;;;;;;;;;5020663;28;20654;-82
2023/10/21 11:29:46;;;;;;;0.40;0.30;;;19.30;99.90;;;;;;5013236;28;20536;-85
2023/10/21 11:32:13;;;;;;;0.40;0.30;;;19.80;99.90;;;;;;5021644;28;20444;-83
2023/10/21 11:34:46;;;;;;;0.40;0.23;;;20.20;99.90;;;;;;5024732;28;20455;-81
2023/10/21 11:37:15;;;;;;;0.40;0.20;;;;;;;;;;5021038;28;20450;-81
2023/10/21 11:39:41;;;;;;;0.40;0.27;;;;;;;;;;5018522;28;20989;-79
2023/10/21 11:42:18;;;;;;;0.40;0.20;;;20.40;99.90;;;;;;5022633;28;20443;-82
2023/10/21 11:45:03;;;;;;;0.40;0.30;;;20.30;99.90;;;;;;5018493;28;20443;-81
2023/10/21 11:47:30;;;;;;;0.40;0.30;;;20.00;99.90;;;;;;5024912;28;20466;-81
2023/10/21 11:49:57;;;;;;;0.40;0.30;;;20.10;99.90;;;;;;5021565;28;20568;-80
2023/10/21 11:52:25;;;;;;;0.40;0.20;;;20.20;99.90;;;;;;5023212;28;21502;-80
2023/10/21 11:58:34;;;;;;;0.40;0.30;;;20.70;99.90;;;;;;5019615;28;20435;-80
2023/10/21 12:01:46;;;;;;;0.40;0.30;;;21.20;99.90;;;;;;5021856;28;20966;-81
2023/10/21 12:40:37;;;;;;;0.40;0.30;;;;;;;;;;5027443;28;20520;-80
2023/10/21 12:45:49;;;;;;;0.40;0.20;;;20.90;99.90;;;;;;5029156;28;20453;-82
2023/10/21 12:48:19;;;;;;;0.40;0.20;;;20.80;99.90;;;;;;5027225;28;20449;-83
2023/10/21 12:50:46;;;;;;;0.40;0.27;;;;;;;;;;5023931;28;20454;-80
2023/10/21 12:53:12;;;;;;;0.40;0.20;;;20.80;99.90;;;;;;5020309;28;20462;-81
2023/10/21 12:55:38;;;;;;;0.40;0.30;;;20.70;99.90;;;;;;5027613;28;20471;-83
2023/10/21 12:58:04;;;;;;;0.40;0.20;;;20.70;99.90;;;;;;5030308;28;20508;-81
2023/10/21 13:00:31;;;;;;;0.40;0.30;;;;;;;;;;5030432;28;20193;-81
2023/10/21 13:02:57;;;;;;;0.40;0.30;;;;;;;;;;5032587;28;20447;-81
2023/10/21 13:05:23;;;;;;;0.40;0.30;;;19.80;99.90;;;;;;5020130;28;20453;-79
2023/10/21 13:07:49;;;;;;;0.40;0.30;;;19.50;99.90;;;;;;5016433;28;20452;-81
2023/10/21 13:10:17;;;;;;;0.40;0.30;;;19.30;99.90;;;;;;5021396;28;21027;-81
2023/10/21 13:12:42;;;;;;;0.40;0.30;;;19.30;99.90;;;;;;5024134;28;20448;-82
2023/10/21 13:15:11;;;;;;;0.40;0.20;;;19.80;99.90;;;;;;5020438;28;20845;-81
2023/10/21 13:17:41;;;;;;;0.40;0.30;;;20.80;99.90;;;;;;5015241;28;20948;-84
2023/10/21 13:20:17;;;;;;;0.40;0.20;;;21.30;99.90;;;;;;5017928;28;21308;-82
2023/10/21 13:22:44;;;;;;;0.40;0.30;;;21.50;99.90;;;;;;5020880;28;20467;-85
2023/10/21 13:25:10;;;;;;;0.40;0.23;;;;;;;;;;5032414;28;20520;-80
2023/10/21 13:27:36;;;;;;;0.40;0.30;;;;;;;;;;5011737;28;20452;-79
2023/10/21 13:30:10;;;;;;;0.40;0.30;;;21.60;99.90;;;;;;5019493;28;20463;-80
2023/10/21 13:32:41;;;;;;;0.40;0.30;;;21.60;99.90;;;;;;5040091;28;20447;-81
2023/10/21 13:35:10;;;;;;;0.40;0.30;;;;;;;;;;5045691;28;20458;-78
2023/10/21 13:37:39;;;;;;;0.40;0.30;;;21.60;98.90;;;;;;5024032;28;20474;-83
2023/10/21 13:40:15;;;;;;;0.40;0.30;;;21.20;97.70;;;;;;5021805;28;20480;-84
2023/10/21 13:42:44;;;;;;;0.40;0.30;;;21.10;98.00;;;;;;5031923;28;20509;-82
2023/10/21 13:45:19;;;;;;;0.40;0.30;;;;;;;;;;5030419;28;20444;-84
2023/10/21 13:47:56;;;;;;;0.40;0.23;;;20.90;99.00;;;;;;5027670;28;20467;-84
2023/10/21 13:50:24;;;;;;;0.40;0.30;;;20.20;99.70;;;;;;5017292;28;21177;-82
2023/10/21 13:53:24;;;;;;;0.40;0.30;;;20.20;99.90;;;;;;5016899;28;20439;-84
2023/10/21 13:55:45;;;;;;;0.40;0.30;;;20.30;99.90;;;;;;5021893;28;20514;-83